Lower Island Cove, Canada
Current Conditions -  °F | °C
As of 6:09 AM on Thursday 27 Nov 2014 (Local Time) from CYYT Reporting Station
Light Rain Light Rain  
Wind Chill: 26°   Ceiling: 800
Heat Index: 34°   Visibility: 12mi
Dew Point: 34°   Wind: 10mph
Humidity: 100%   Direction: 110°ESE
Pressure: 30.04"   Gusts: NA
Location:  48°N, 53°W
Report Text: CYYT 270909Z 11009KT 12SM -RA BKN008 OVC040 01/01 A3004 RMK SF6SC2 SLP179
Loading
Personal Weather Stations






























Interactive Weather Map New forecast layout! Learn more

10-Day Weather Forecast

Advertisements
Track Severe Weather on mobile